Risingdale, Massachusetts
Current Conditions -  °F | °C
As of 12:24 AM on Thursday 27 Nov 2014 (Local Time) from KPSF Reporting Station
Light Snow Light Snow  
Wind Chill: -6°   Ceiling: 1500
Heat Index: -2°   Visibility: 3mi
Dew Point: -4°   Wind: 7mph
Humidity: 88%   Direction: 280°W
Pressure: 29.78"   Gusts: NA
Location:  42.1779°N, 73.3332°W
Report Text: KPSF 270524Z AUTO 28006KT 3SM -SN BR OVC015 M02/M04 A2978 RMK AO2 P0001 T10221039
Loading
Personal Weather Stations






























Interactive Weather Map New forecast layout! Learn more

10-Day Weather Forecast

Advertisements
Track Severe Weather on mobile